createdAt,value
2018-10-07T00:02:17.612Z,14.20
2018-10-07T00:04:45.435Z,14.20
2018-10-07T00:07:13.018Z,14.10
2018-10-07T00:09:40.573Z,14.10
2018-10-07T00:12:08.056Z,14.10
2018-10-07T00:14:35.608Z,14.10
2018-10-07T00:17:03.239Z,14.10
2018-10-07T00:19:30.757Z,14.10
2018-10-07T00:21:58.432Z,14.00
2018-10-07T00:24:25.960Z,14.00
2018-10-07T00:26:53.455Z,13.90
2018-10-07T00:29:20.872Z,14.00
2018-10-07T00:31:54.001Z,13.90
2018-10-07T00:34:21.501Z,14.00
2018-10-07T00:36:49.057Z,14.00
2018-10-07T00:39:16.574Z,14.00
2018-10-07T00:41:43.990Z,13.90
2018-10-07T00:44:11.483Z,13.90
2018-10-07T00:46:39.006Z,13.80
2018-10-07T00:49:06.440Z,13.80
2018-10-07T00:51:33.924Z,13.70
2018-10-07T00:54:01.452Z,13.60
2018-10-07T00:56:28.907Z,13.60
2018-10-07T00:58:56.407Z,13.60
2018-10-07T01:01:24.156Z,13.60
2018-10-07T01:03:51.635Z,13.50
2018-10-07T01:06:19.161Z,13.70
2018-10-07T01:08:46.645Z,13.60
2018-10-07T01:11:14.083Z,13.50
2018-10-07T01:13:41.551Z,13.40
2018-10-07T01:16:09.029Z,13.50
2018-10-07T01:18:36.998Z,13.50
2018-10-07T01:21:04.614Z,13.40
2018-10-07T01:23:32.060Z,13.40
2018-10-07T01:25:59.595Z,13.50
2018-10-07T01:28:27.068Z,13.40
2018-10-07T01:30:54.507Z,13.30
2018-10-07T01:33:24.018Z,13.40
2018-10-07T01:35:51.595Z,13.40
2018-10-07T01:38:19.118Z,13.40
2018-10-07T01:40:46.777Z,13.30
2018-10-07T01:43:14.521Z,13.30
2018-10-07T01:45:42.003Z,13.30
2018-10-07T01:48:09.664Z,13.30
2018-10-07T01:50:37.232Z,13.30
2018-10-07T01:53:09.065Z,13.20
2018-10-07T01:55:37.747Z,13.20
2018-10-07T01:58:05.562Z,13.10
2018-10-07T02:00:33.188Z,13.20
2018-10-07T02:03:00.768Z,13.10
2018-10-07T02:05:28.251Z,13.20
2018-10-07T02:07:56.172Z,13.00
2018-10-07T02:10:24.748Z,13.00
2018-10-07T02:12:54.551Z,12.90
2018-10-07T02:15:22.132Z,13.10
2018-10-07T02:17:49.768Z,12.90
2018-10-07T02:20:17.218Z,13.00
2018-10-07T02:22:44.767Z,12.90
2018-10-07T02:25:12.668Z,12.90
2018-10-07T02:27:40.322Z,13.00
2018-10-07T02:30:07.867Z,12.80
2018-10-07T02:32:35.440Z,12.90
2018-10-07T02:35:02.936Z,12.70
2018-10-07T02:37:30.455Z,12.80
2018-10-07T02:39:57.919Z,12.70
2018-10-07T02:42:25.367Z,12.80
2018-10-07T02:44:52.918Z,12.80
2018-10-07T02:47:20.499Z,12.80
2018-10-07T02:49:47.932Z,12.80
2018-10-07T02:52:19.985Z,12.80
2018-10-07T02:54:47.560Z,12.80
2018-10-07T02:57:15.123Z,12.80
2018-10-07T02:59:42.676Z,12.70
2018-10-07T03:02:10.160Z,12.80
2018-10-07T03:04:37.733Z,12.70
2018-10-07T03:07:05.187Z,12.70
2018-10-07T03:09:32.690Z,12.80
2018-10-07T03:12:00.152Z,12.70
2018-10-07T03:14:27.595Z,12.70
2018-10-07T03:16:55.121Z,12.50
2018-10-07T03:19:22.573Z,12.60
2018-10-07T03:21:50.020Z,12.60
2018-10-07T03:24:17.486Z,12.50
2018-10-07T03:26:44.919Z,12.50
2018-10-07T03:29:12.432Z,12.60
2018-10-07T03:31:40.012Z,12.60
2018-10-07T03:34:07.579Z,12.50
2018-10-07T03:36:35.122Z,12.50
2018-10-07T03:39:04.548Z,12.60
2018-10-07T03:41:32.080Z,12.50
2018-10-07T03:43:59.617Z,12.50
2018-10-07T03:46:27.067Z,12.50
2018-10-07T03:48:54.491Z,12.50
2018-10-07T03:51:21.928Z,12.60
2018-10-07T03:53:49.454Z,12.60
2018-10-07T03:56:16.945Z,12.50
2018-10-07T03:58:44.415Z,12.40
2018-10-07T04:01:12.096Z,12.50
2018-10-07T04:03:40.329Z,12.40
2018-10-07T04:06:07.979Z,12.50
2018-10-07T04:08:35.694Z,12.50
2018-10-07T04:11:03.142Z,12.50
2018-10-07T04:13:30.696Z,12.40
2018-10-07T04:15:58.187Z,12.40
2018-10-07T04:18:25.778Z,12.30
2018-10-07T04:20:53.321Z,12.30
2018-10-07T04:23:22.704Z,12.20
2018-10-07T04:25:50.286Z,12.50
2018-10-07T04:28:17.850Z,12.30
2018-10-07T04:33:12.991Z,12.30
2018-10-07T04:35:40.428Z,12.20
2018-10-07T04:38:07.877Z,12.20
2018-10-07T04:40:35.567Z,12.30
2018-10-07T04:43:03.031Z,12.20
2018-10-07T04:45:30.677Z,12.20
2018-10-07T04:47:58.154Z,12.10
2018-10-07T04:50:25.711Z,12.10
2018-10-07T04:52:53.161Z,12.10
2018-10-07T04:55:20.641Z,12.20
2018-10-07T04:57:48.108Z,12.20
2018-10-07T05:00:15.921Z,12.20
2018-10-07T05:02:43.468Z,12.10
2018-10-07T05:05:11.016Z,12.00
2018-10-07T05:07:38.571Z,12.00
2018-10-07T05:10:53.493Z,12.10
2018-10-07T05:13:28.220Z,11.90
2018-10-07T05:15:58.472Z,12.00
2018-10-07T05:18:26.025Z,12.00
2018-10-07T05:20:54.166Z,12.00
2018-10-07T05:23:21.972Z,11.90
2018-10-07T05:25:50.240Z,11.90
2018-10-07T05:28:18.428Z,11.90
2018-10-07T05:30:46.082Z,12.00
2018-10-07T05:33:13.717Z,11.90
2018-10-07T05:35:41.940Z,12.00
2018-10-07T05:38:09.537Z,11.90
2018-10-07T05:40:37.123Z,11.80
2018-10-07T05:43:04.686Z,11.70
2018-10-07T05:45:32.222Z,11.80
2018-10-07T05:47:59.700Z,11.80
2018-10-07T05:50:27.207Z,11.80
2018-10-07T05:52:55.141Z,11.90
2018-10-07T05:55:22.971Z,11.90
2018-10-07T05:57:53.588Z,11.90
2018-10-07T06:00:21.447Z,11.80
2018-10-07T06:02:49.502Z,11.90
2018-10-07T06:05:17.105Z,11.80
2018-10-07T06:07:44.741Z,11.80
2018-10-07T06:10:12.244Z,11.70
2018-10-07T06:12:40.468Z,11.60
2018-10-07T06:15:29.437Z,11.70
2018-10-07T06:17:57.395Z,11.60
2018-10-07T06:20:25.268Z,11.60
2018-10-07T06:22:52.932Z,11.80
2018-10-07T06:25:20.545Z,11.90
2018-10-07T06:27:48.144Z,11.80
2018-10-07T06:30:15.753Z,11.90
2018-10-07T06:32:43.292Z,11.90
2018-10-07T06:35:10.836Z,12.10
2018-10-07T06:37:38.441Z,12.20
2018-10-07T06:40:06.137Z,12.20
2018-10-07T06:42:33.622Z,12.30
2018-10-07T06:45:01.124Z,12.40
2018-10-07T06:47:28.668Z,12.40
2018-10-07T06:49:56.237Z,12.50
2018-10-07T06:52:23.903Z,12.60
2018-10-07T06:54:51.444Z,12.70
2018-10-07T06:57:18.923Z,12.70
2018-10-07T06:59:46.561Z,12.80
2018-10-07T07:02:14.103Z,12.80
2018-10-07T07:04:41.687Z,12.90
2018-10-07T07:07:09.156Z,13.00
2018-10-07T07:09:36.696Z,13.00
2018-10-07T07:12:04.252Z,13.10
2018-10-07T07:14:32.238Z,13.10
2018-10-07T07:16:59.813Z,13.20
2018-10-07T07:19:27.500Z,13.30
2018-10-07T07:21:55.160Z,13.30
2018-10-07T07:24:22.668Z,13.40
2018-10-07T07:26:50.190Z,13.50
2018-10-07T07:29:17.836Z,13.50
2018-10-07T07:31:45.456Z,13.60
2018-10-07T07:34:13.024Z,13.50
2018-10-07T07:36:40.673Z,13.70
2018-10-07T07:39:08.904Z,13.70
2018-10-07T07:41:36.428Z,13.70
2018-10-07T07:44:03.954Z,13.80
2018-10-07T07:46:31.504Z,14.00
2018-10-07T07:48:59.019Z,14.00
2018-10-07T07:51:26.958Z,14.10
2018-10-07T07:53:54.456Z,14.00
2018-10-07T07:56:22.107Z,14.20
2018-10-07T07:58:49.615Z,14.10
2018-10-07T08:01:17.180Z,14.40
2018-10-07T08:03:44.943Z,14.40
2018-10-07T08:06:13.469Z,14.50
2018-10-07T08:08:41.086Z,14.60
2018-10-07T08:11:08.782Z,14.70
2018-10-07T08:13:36.339Z,14.80
2018-10-07T08:16:03.879Z,14.80
2018-10-07T08:18:31.680Z,15.00
2018-10-07T08:20:59.258Z,15.10
2018-10-07T08:23:26.762Z,15.40
2018-10-07T08:25:54.236Z,15.40
2018-10-07T08:28:21.690Z,15.50
2018-10-07T08:30:49.332Z,15.80
2018-10-07T08:33:16.915Z,15.90
2018-10-07T08:35:44.631Z,16.00
2018-10-07T08:38:12.244Z,16.20
2018-10-07T08:40:39.717Z,16.20
2018-10-07T08:43:07.193Z,16.20
2018-10-07T08:45:35.546Z,16.40
2018-10-07T08:48:03.617Z,16.50
2018-10-07T08:50:31.072Z,16.60
2018-10-07T08:52:58.600Z,16.80
2018-10-07T08:55:26.081Z,16.90
2018-10-07T08:57:53.592Z,17.00
2018-10-07T09:00:21.052Z,17.20
2018-10-07T09:02:48.559Z,17.20
2018-10-07T09:05:16.020Z,17.40
2018-10-07T09:07:43.531Z,17.60
2018-10-07T09:10:11.189Z,17.70
2018-10-07T09:12:39.233Z,17.70
2018-10-07T09:15:07.067Z,17.90
2018-10-07T09:17:35.553Z,18.20
2018-10-07T09:20:03.599Z,18.30
2018-10-07T09:22:31.528Z,18.30
2018-10-07T09:24:59.091Z,18.30
2018-10-07T09:27:26.765Z,18.40
2018-10-07T09:29:55.751Z,18.60
2018-10-07T09:32:23.371Z,18.60
2018-10-07T09:34:50.811Z,18.80
2018-10-07T09:37:18.278Z,19.00
2018-10-07T09:39:45.772Z,19.10
2018-10-07T09:42:15.154Z,19.10
2018-10-07T09:44:42.958Z,19.10
2018-10-07T09:47:10.712Z,19.00
2018-10-07T09:49:39.798Z,19.00
2018-10-07T09:52:07.275Z,19.00
2018-10-07T09:54:34.796Z,19.00
2018-10-07T09:57:02.788Z,19.00
2018-10-07T09:59:30.667Z,19.20
2018-10-07T10:01:58.596Z,19.60
2018-10-07T10:04:26.135Z,19.40
2018-10-07T10:06:53.640Z,18.90
2018-10-07T10:09:21.968Z,18.60
2018-10-07T10:11:50.170Z,18.50
2018-10-07T10:14:18.912Z,18.90
2018-10-07T10:17:18.391Z,19.30
2018-10-07T10:20:11.931Z,19.20
2018-10-07T10:22:54.777Z,18.80
2018-10-07T10:25:24.772Z,19.30
2018-10-07T10:28:01.359Z,20.30
2018-10-07T10:34:58.602Z,20.50
2018-10-07T10:37:35.079Z,20.60
2018-10-07T10:40:06.666Z,20.70
2018-10-07T10:42:51.942Z,21.10
2018-10-07T10:45:29.568Z,21.10
2018-10-07T10:48:04.228Z,21.40
2018-10-07T10:50:41.745Z,21.80
2018-10-07T10:53:18.117Z,22.10
2018-10-07T10:55:58.529Z,22.20
2018-10-07T10:58:34.136Z,22.50
2018-10-07T11:01:12.268Z,23.50
2018-10-07T11:03:50.344Z,23.10
2018-10-07T11:06:35.309Z,22.70
2018-10-07T11:09:13.217Z,23.20
2018-10-07T11:11:55.938Z,24.00
2018-10-07T11:15:30.072Z,24.10
2018-10-07T11:18:10.041Z,25.00
2018-10-07T11:20:59.821Z,25.70
2018-10-07T11:24:11.065Z,25.80
2018-10-07T11:27:56.036Z,25.20
2018-10-07T11:31:37.352Z,25.10
2018-10-07T11:35:19.007Z,25.20
2018-10-07T11:37:58.253Z,25.40
2018-10-07T11:40:37.251Z,24.40
2018-10-07T11:43:13.409Z,23.30
2018-10-07T11:45:45.488Z,22.60
2018-10-07T11:49:24.096Z,22.70
2018-10-07T11:51:58.108Z,22.50
2018-10-07T11:54:37.498Z,22.60
2018-10-07T11:57:05.231Z,22.80
2018-10-07T11:59:33.204Z,23.20
2018-10-07T12:02:01.040Z,22.60
2018-10-07T12:04:28.557Z,22.30
2018-10-07T12:06:56.790Z,22.50
2018-10-07T12:09:24.311Z,22.70
2018-10-07T12:11:51.875Z,22.70
2018-10-07T12:14:19.355Z,22.60
2018-10-07T12:16:46.924Z,22.40
2018-10-07T12:19:15.473Z,21.90
2018-10-07T12:21:44.439Z,22.40
2018-10-07T12:24:12.350Z,22.60
2018-10-07T12:26:39.845Z,22.80
2018-10-07T12:29:07.376Z,23.20
2018-10-07T12:31:34.779Z,23.60
2018-10-07T12:34:02.412Z,23.50
2018-10-07T12:36:30.005Z,23.80
2018-10-07T12:38:57.779Z,24.20
2018-10-07T12:41:25.704Z,23.40
2018-10-07T12:43:53.539Z,23.40
2018-10-07T12:46:21.387Z,24.00
2018-10-07T12:48:54.282Z,24.40
2018-10-07T12:51:23.405Z,24.10
2018-10-07T12:53:52.119Z,23.90
2018-10-07T12:56:20.721Z,24.20
2018-10-07T12:58:49.572Z,23.80
2018-10-07T13:01:17.148Z,23.30
2018-10-07T13:03:44.680Z,23.00
2018-10-07T13:06:12.161Z,22.40
2018-10-07T13:08:39.736Z,22.10
2018-10-07T13:11:07.476Z,22.20
2018-10-07T13:13:35.002Z,22.00
2018-10-07T13:16:02.572Z,21.90
2018-10-07T13:18:30.157Z,21.60
2018-10-07T13:20:57.772Z,21.80
2018-10-07T13:23:25.287Z,21.70
2018-10-07T13:25:52.976Z,21.60
2018-10-07T13:28:20.609Z,21.30
2018-10-07T13:30:48.179Z,21.60
2018-10-07T13:33:15.736Z,21.70
2018-10-07T13:35:43.275Z,21.70
2018-10-07T13:38:10.881Z,21.60
2018-10-07T13:40:39.974Z,21.40
2018-10-07T13:43:07.858Z,21.00
2018-10-07T13:45:35.311Z,21.40
2018-10-07T13:48:03.804Z,21.60
2018-10-07T13:50:31.660Z,21.20
2018-10-07T13:52:59.268Z,21.00
2018-10-07T13:55:26.759Z,20.70
2018-10-07T13:57:54.932Z,20.60
2018-10-07T14:00:23.268Z,20.50
2018-10-07T14:02:51.024Z,20.40
2018-10-07T14:05:18.540Z,20.40
2018-10-07T14:07:46.483Z,20.40
2018-10-07T14:10:14.725Z,20.10
2018-10-07T14:12:42.784Z,19.90
2018-10-07T14:15:10.270Z,19.60
2018-10-07T14:17:37.751Z,19.30
2018-10-07T14:20:05.587Z,18.80
2018-10-07T14:22:33.507Z,18.70
2018-10-07T14:25:01.245Z,18.50
2018-10-07T14:27:28.731Z,18.20
2018-10-07T14:29:56.634Z,18.20
2018-10-07T14:32:24.396Z,17.90
2018-10-07T14:34:52.048Z,18.00
2018-10-07T14:37:19.527Z,18.10
2018-10-07T14:39:47.025Z,18.00
2018-10-07T14:42:14.475Z,17.90
2018-10-07T14:44:41.935Z,17.80
2018-10-07T14:47:09.425Z,17.60
2018-10-07T14:49:36.967Z,17.60
2018-10-07T14:52:04.601Z,17.50
2018-10-07T14:54:32.116Z,17.40
2018-10-07T14:56:59.560Z,17.20
2018-10-07T14:59:27.025Z,17.00
2018-10-07T15:01:54.533Z,17.00
2018-10-07T15:04:23.179Z,17.10
2018-10-07T15:06:50.715Z,17.00
2018-10-07T15:09:18.277Z,16.90
2018-10-07T15:11:45.941Z,16.90
2018-10-07T15:14:13.472Z,16.70
2018-10-07T15:16:41.048Z,16.70
2018-10-07T15:19:08.614Z,16.80
2018-10-07T15:21:36.263Z,16.70
2018-10-07T15:24:03.733Z,16.60
2018-10-07T15:26:31.287Z,16.80
2018-10-07T15:28:58.931Z,16.60
2018-10-07T15:31:26.929Z,16.70
2018-10-07T15:33:56.064Z,16.70
2018-10-07T15:36:27.996Z,16.80
2018-10-07T15:38:55.510Z,16.60
2018-10-07T15:41:22.986Z,16.60
2018-10-07T15:43:50.504Z,16.60
2018-10-07T15:46:17.947Z,16.50
2018-10-07T15:48:45.646Z,16.30
2018-10-07T15:51:13.389Z,16.30
2018-10-07T15:53:41.049Z,16.10
2018-10-07T15:56:08.695Z,15.90
2018-10-07T15:58:36.225Z,16.00
2018-10-07T16:01:03.721Z,16.00
2018-10-07T16:03:31.415Z,15.90
2018-10-07T16:05:58.922Z,15.80
2018-10-07T16:08:26.472Z,15.90
2018-10-07T16:10:54.140Z,15.80
2018-10-07T16:13:21.731Z,15.60
2018-10-07T16:15:49.268Z,15.60
2018-10-07T16:18:16.789Z,15.60
2018-10-07T16:20:44.351Z,15.60
2018-10-07T16:23:11.985Z,15.60
2018-10-07T16:25:39.506Z,15.40
2018-10-07T16:28:07.093Z,15.40
2018-10-07T16:30:34.684Z,15.40
2018-10-07T16:33:02.268Z,15.20
2018-10-07T16:35:29.842Z,15.20
2018-10-07T16:37:57.304Z,15.30
2018-10-07T16:40:24.836Z,15.10
2018-10-07T16:42:52.821Z,15.20
2018-10-07T16:45:20.531Z,15.20
2018-10-07T16:47:48.065Z,15.10
2018-10-07T16:50:15.809Z,15.10
2018-10-07T16:52:43.504Z,15.00
2018-10-07T16:55:11.296Z,15.10
2018-10-07T16:57:38.941Z,14.90
2018-10-07T17:00:06.604Z,15.00
2018-10-07T17:02:34.753Z,14.90
2018-10-07T17:05:02.338Z,14.90
2018-10-07T17:07:30.119Z,14.90
2018-10-07T17:09:57.789Z,14.80
2018-10-07T17:12:25.409Z,14.70
2018-10-07T17:14:52.899Z,14.60
2018-10-07T17:17:20.669Z,14.50
2018-10-07T17:19:55.118Z,14.50
2018-10-07T17:22:22.946Z,14.60
2018-10-07T17:24:56.579Z,14.60
2018-10-07T17:27:33.422Z,14.50
2018-10-07T17:30:01.193Z,14.50
2018-10-07T17:32:28.724Z,14.50
2018-10-07T17:34:56.300Z,14.40
2018-10-07T17:37:23.879Z,14.40
2018-10-07T17:39:51.423Z,14.40
2018-10-07T17:42:19.114Z,14.40
2018-10-07T17:44:46.838Z,14.40
2018-10-07T17:47:14.823Z,14.30
2018-10-07T17:49:42.272Z,14.40
2018-10-07T17:52:09.748Z,14.30
2018-10-07T17:54:37.460Z,14.20
2018-10-07T17:57:04.900Z,14.20
2018-10-07T17:59:32.882Z,14.20
2018-10-07T18:02:00.540Z,14.10
2018-10-07T18:04:27.971Z,14.20
2018-10-07T18:06:55.536Z,14.10
2018-10-07T18:09:23.071Z,14.20
2018-10-07T18:11:52.068Z,14.10
2018-10-07T18:14:19.785Z,14.10
2018-10-07T18:16:47.488Z,14.10
2018-10-07T18:19:15.142Z,14.10
2018-10-07T18:21:42.820Z,14.10
2018-10-07T18:24:10.396Z,13.90
2018-10-07T18:26:37.963Z,13.90
2018-10-07T18:29:05.831Z,14.00
2018-10-07T18:31:33.657Z,13.90
2018-10-07T18:34:01.187Z,13.90
2018-10-07T18:36:28.764Z,14.00
2018-10-07T18:38:56.300Z,14.00
2018-10-07T18:41:24.021Z,13.90
2018-10-07T18:43:51.568Z,14.00
2018-10-07T18:46:19.155Z,14.00
2018-10-07T18:48:46.790Z,13.90
2018-10-07T18:51:14.545Z,13.90
2018-10-07T18:53:42.084Z,13.80
2018-10-07T18:56:09.915Z,13.80
2018-10-07T18:58:37.633Z,13.70
2018-10-07T19:01:05.444Z,13.60
2018-10-07T19:03:32.956Z,13.60
2018-10-07T19:06:00.476Z,13.70
2018-10-07T19:08:29.725Z,13.70
2018-10-07T19:10:57.465Z,13.70
2018-10-07T19:13:25.172Z,13.60
2018-10-07T19:15:52.660Z,13.60
2018-10-07T19:18:20.324Z,13.60
2018-10-07T19:20:47.941Z,13.70
2018-10-07T19:23:15.805Z,13.70
2018-10-07T19:25:43.612Z,13.70
2018-10-07T19:28:11.748Z,13.70
2018-10-07T19:30:39.587Z,13.60
2018-10-07T19:33:07.401Z,13.70
2018-10-07T19:35:35.430Z,13.60
2018-10-07T19:38:03.001Z,13.60
2018-10-07T19:40:31.509Z,13.50
2018-10-07T19:42:59.387Z,13.60
2018-10-07T19:45:28.308Z,13.50
2018-10-07T19:47:55.941Z,13.60
2018-10-07T19:50:31.198Z,13.40
2018-10-07T19:53:00.821Z,13.30
2018-10-07T19:55:38.738Z,13.40
2018-10-07T19:58:06.707Z,13.40
2018-10-07T20:00:35.448Z,13.30
2018-10-07T20:03:04.177Z,13.30
2018-10-07T20:05:32.155Z,13.40
2018-10-07T20:08:02.868Z,13.40
2018-10-07T20:10:31.165Z,13.50
2018-10-07T20:12:58.797Z,13.30
2018-10-07T20:15:26.534Z,13.40
2018-10-07T20:17:54.105Z,13.40
2018-10-07T20:20:21.866Z,13.50
2018-10-07T20:22:49.648Z,13.40
2018-10-07T20:25:31.875Z,13.40
2018-10-07T20:30:39.011Z,13.30
2018-10-07T20:33:06.634Z,13.40
2018-10-07T20:35:34.981Z,13.40
2018-10-07T20:38:02.752Z,13.30
2018-10-07T20:40:30.738Z,13.20
2018-10-07T20:42:58.928Z,13.30
2018-10-07T20:45:26.871Z,13.30
2018-10-07T20:47:55.313Z,13.30
2018-10-07T20:50:29.629Z,13.30
2018-10-07T20:52:58.196Z,13.20
2018-10-07T20:55:25.818Z,13.20
2018-10-07T20:57:54.633Z,13.30
2018-10-07T21:00:22.821Z,13.20
2018-10-07T21:02:51.066Z,13.10
2018-10-07T21:05:19.174Z,13.10
2018-10-07T21:07:46.652Z,13.10
2018-10-07T21:10:14.188Z,13.10
2018-10-07T21:12:41.865Z,13.10
2018-10-07T21:15:09.797Z,13.20
2018-10-07T21:17:37.278Z,13.00
2018-10-07T21:20:05.094Z,13.10
2018-10-07T21:22:33.934Z,12.90
2018-10-07T21:25:01.516Z,13.10
2018-10-07T21:27:29.073Z,13.00
2018-10-07T21:29:57.432Z,12.90
2018-10-07T21:32:25.044Z,13.00
2018-10-07T21:34:53.832Z,12.90
2018-10-07T21:37:21.464Z,12.90
2018-10-07T21:39:49.685Z,12.90
2018-10-07T21:42:17.394Z,12.90
2018-10-07T21:44:45.056Z,12.90
2018-10-07T21:47:12.650Z,12.90
2018-10-07T21:49:40.304Z,13.00
2018-10-07T21:52:08.049Z,12.90
2018-10-07T21:54:35.826Z,12.80
2018-10-07T21:57:04.624Z,12.90
2018-10-07T21:59:32.167Z,12.90
2018-10-07T22:02:00.850Z,12.90
2018-10-07T22:04:28.484Z,13.10
2018-10-07T22:06:56.132Z,13.00
2018-10-07T22:09:23.919Z,12.80
2018-10-07T22:11:52.183Z,12.80
2018-10-07T22:14:20.386Z,12.90
2018-10-07T22:16:47.958Z,12.90
2018-10-07T22:19:15.600Z,13.00
2018-10-07T22:21:43.968Z,12.80
2018-10-07T22:24:11.514Z,12.80
2018-10-07T22:26:42.113Z,12.90
2018-10-07T22:29:10.237Z,12.90
2018-10-07T22:31:38.085Z,13.00
2018-10-07T22:34:06.654Z,12.90
2018-10-07T22:36:34.494Z,12.80
2018-10-07T22:39:02.252Z,12.90
2018-10-07T22:41:30.970Z,12.80
2018-10-07T22:43:58.570Z,12.80
2018-10-07T22:46:26.544Z,12.80
2018-10-07T22:48:54.163Z,12.70
2018-10-07T22:51:22.596Z,12.70
2018-10-07T22:53:50.224Z,12.70
2018-10-07T22:56:17.988Z,12.70
2018-10-07T22:58:45.957Z,12.80
2018-10-07T23:01:13.505Z,12.80
2018-10-07T23:03:41.173Z,12.80
2018-10-07T23:06:08.688Z,12.80
2018-10-07T23:08:37.036Z,12.80
2018-10-07T23:11:04.687Z,12.70
2018-10-07T23:13:32.431Z,12.70
2018-10-07T23:15:59.926Z,12.70
2018-10-07T23:18:27.669Z,12.70
2018-10-07T23:20:55.359Z,12.70
2018-10-07T23:23:23.399Z,12.60
2018-10-07T23:25:50.944Z,12.60
2018-10-07T23:28:18.412Z,12.70
2018-10-07T23:30:46.720Z,12.70
2018-10-07T23:33:14.373Z,12.60
2018-10-07T23:35:41.967Z,12.50
2018-10-07T23:38:10.155Z,12.50
2018-10-07T23:40:38.092Z,12.50
2018-10-07T23:43:06.582Z,12.60
2018-10-07T23:45:34.258Z,12.50
2018-10-07T23:48:01.819Z,12.60
2018-10-07T23:50:29.767Z,12.50
2018-10-07T23:52:57.428Z,12.50
2018-10-07T23:55:25.421Z,12.30
2018-10-07T23:57:53.862Z,12.40
